Decoded Metar for LFTW (NIMES in FRANCE) (IATA:FNI) | Meteo·Mobile Aviation Weather
aviador You're here:

LFTW Decoded Metar

NIMES in FRANCE
Report Time2018-10-18 16:00:00
UTC Time2018-10-18 16:15:08
Flight Rules vfr VFR
Wind010° at 06 kt
W.Decomp.*RWY 36: 5.9 kt HW 0.9 kt RCW
W.Rank010° ranks 2
Current wind is below 010° avg. (10.6)
Visibility9999 m
Phenomena:N/A
Clouds:N/A
Expected CloudBase > 3,200 ft AGL from Temp-Dew spread
CeilingNone
Temp21°C (ISA +7)
Dew Point13°C (60% RH)
AAT19.8°C
QNH1013 hPa
Density Alt1,289 ft
Elevation315 ft
Report Wrong Elevation
Raw Report
LFTW 181600Z AUTO 01006KT CAVOK 21/13 Q1013 NOSIG=

Extra information for LFTW:More info

Metar Taf Metar & Taf Last 4 Metars F.Rules Stats Wind Profile Meteogram Temp Stats Airport Information Weather charts Add Link Nearby VenuesMetar ALERT Operation Metar Decoded Social comments